Time;durP1;ratioP1;P1;durP2;ratioP2;P2;SDS_P1;SDS_P2;PMS_P1;PMS_P2;Temp;Humidity;BMP_temperature;BMP_pressure;BME280_temperature;BME280_humidity;BME280_pressure;Samples;Min_cycle;Max_cycle;Signal;HPM_P1;HPM_P2
2022/05/31 00:00:32;;;;;;;0.60;0.60;;;8.80;99.90;;;;;;4991636;28;20300;-76
2022/05/31 00:09:57;;;;;;;0.70;0.70;;;8.90;99.90;;;;;;5046206;22;20266;-75
2022/05/31 00:12:23;;;;;;;0.50;0.50;;;8.80;99.90;;;;;;5030644;28;20298;-75
2022/05/31 00:14:49;;;;;;;0.60;0.60;;;8.90;99.90;;;;;;5032426;28;20267;-75
2022/05/31 00:17:14;;;;;;;0.50;0.50;;;8.80;99.90;;;;;;5032407;28;20195;-75
2022/05/31 00:19:40;;;;;;;0.60;0.60;;;8.80;99.90;;;;;;5031998;28;20215;-75
2022/05/31 00:22:13;;;;;;;0.53;0.53;;;8.80;99.90;;;;;;5032207;28;20600;-75
2022/05/31 00:24:39;;;;;;;0.60;0.60;;;8.80;99.90;;;;;;5022724;28;20184;-73
2022/05/31 00:27:07;;;;;;;0.50;0.50;;;8.80;1.80;;;;;;5021141;28;20661;-74
2022/05/31 00:29:32;;;;;;;0.50;0.50;;;8.80;99.90;;;;;;5020285;28;20327;-73
2022/05/31 00:32:00;;;;;;;0.50;0.50;;;8.80;89.70;;;;;;5032185;28;20684;-73
2022/05/31 00:34:26;;;;;;;0.50;0.50;;;8.70;99.90;;;;;;5031793;28;20949;-74
2022/05/31 00:36:52;;;;;;;0.53;0.53;;;8.60;99.90;;;;;;5032197;28;20183;-74
2022/05/31 00:39:18;;;;;;;0.60;0.60;;;8.50;99.90;;;;;;5031499;28;20208;-74
2022/05/31 00:42:10;;;;;;;0.60;0.60;;;8.50;99.90;;;;;;5031967;28;20638;-74
2022/05/31 00:44:36;;;;;;;0.50;0.50;;;8.50;99.90;;;;;;5031879;28;20664;-74
2022/05/31 00:47:09;;;;;;;0.50;0.50;;;8.40;99.90;;;;;;5032051;28;20214;-74
2022/05/31 00:49:44;;;;;;;0.50;0.50;;;8.40;99.90;;;;;;5031343;28;20167;-75
2022/05/31 00:52:12;;;;;;;0.60;0.60;;;8.30;99.90;;;;;;5031641;28;20209;-74
2022/05/31 00:54:43;;;;;;;0.50;0.50;;;8.30;99.90;;;;;;5031791;28;20168;-74
2022/05/31 00:57:11;;;;;;;0.70;0.70;;;8.10;99.90;;;;;;5031744;28;20706;-75
2022/05/31 00:59:40;;;;;;;0.60;0.60;;;8.00;99.90;;;;;;5031258;28;20212;-73
2022/05/31 01:02:06;;;;;;;0.50;0.50;;;8.00;99.90;;;;;;5031639;28;20227;-75
2022/05/31 01:04:50;;;;;;;0.50;0.50;;;8.00;99.90;;;;;;5031726;28;20176;-74
2022/05/31 01:07:16;;;;;;;0.60;0.60;;;7.90;99.90;;;;;;5031827;28;20680;-76
2022/05/31 01:09:42;;;;;;;0.50;0.50;;;7.90;99.90;;;;;;5031140;28;20537;-74
2022/05/31 01:12:09;;;;;;;0.60;0.60;;;7.80;1.00;;;;;;5035823;28;20192;-73
2022/05/31 01:14:35;;;;;;;0.60;0.60;;;7.80;1.00;;;;;;5035803;28;20190;-75
2022/05/31 01:17:07;;;;;;;0.60;0.60;;;7.70;1.00;;;;;;5035786;28;20551;-73
2022/05/31 01:22:17;;;;;;;0.57;0.57;;;7.70;1.00;;;;;;5035513;28;20198;-73
2022/05/31 01:25:04;;;;;;;0.50;0.50;;;7.70;1.00;;;;;;5035490;28;20558;-75
2022/05/31 01:27:42;;;;;;;0.50;0.50;;;7.60;1.00;;;;;;5035400;28;20202;-73
2022/05/31 01:30:09;;;;;;;0.60;0.60;;;7.70;1.00;;;;;;5034836;28;20176;-74
2022/05/31 01:32:41;;;;;;;0.60;0.60;;;7.60;1.00;;;;;;5035340;28;20329;-73
2022/05/31 01:35:18;;;;;;;0.57;0.57;;;7.60;1.00;;;;;;5035499;28;20270;-73
2022/05/31 01:37:53;;;;;;;0.50;0.50;;;7.50;1.00;;;;;;5035041;28;20179;-73
2022/05/31 01:40:30;;;;;;;0.60;0.60;;;7.60;1.00;;;;;;5034687;28;20203;-73
2022/05/31 01:42:56;;;;;;;0.60;0.60;;;7.50;1.00;;;;;;5035379;28;20219;-74
2022/05/31 01:45:26;;;;;;;0.50;0.50;;;7.50;1.00;;;;;;5035105;28;20180;-73
2022/05/31 01:47:58;;;;;;;0.60;0.60;;;7.50;1.00;;;;;;5033955;28;20214;-73
2022/05/31 01:50:24;;;;;;;0.63;0.63;;;7.50;1.00;;;;;;5034677;28;20183;-73
2022/05/31 01:52:51;;;;;;;0.60;0.60;;;7.50;1.00;;;;;;5034704;28;20191;-74
2022/05/31 01:55:17;;;;;;;0.67;0.67;;;7.50;1.00;;;;;;5034962;28;20183;-73
2022/05/31 01:57:48;;;;;;;0.60;0.60;;;7.50;1.00;;;;;;5034865;28;20259;-72
2022/05/31 02:00:16;;;;;;;0.67;0.67;;;7.60;1.00;;;;;;5034334;28;20564;-73
2022/05/31 02:02:47;;;;;;;0.60;0.60;;;7.60;1.00;;;;;;5034619;28;20200;-73
2022/05/31 02:05:13;;;;;;;0.60;0.60;;;7.60;1.00;;;;;;5034731;28;20245;-73
2022/05/31 02:07:38;;;;;;;0.60;0.60;;;7.60;1.00;;;;;;5034490;28;20171;-74
2022/05/31 02:10:05;;;;;;;0.57;0.57;;;7.50;1.00;;;;;;5034073;28;20791;-73
2022/05/31 02:12:31;;;;;;;0.50;0.50;;;7.60;1.00;;;;;;5034559;28;20196;-74
2022/05/31 02:14:57;;;;;;;0.60;0.60;;;7.60;1.00;;;;;;5034581;28;20203;-73
2022/05/31 02:17:22;;;;;;;0.60;0.60;;;7.60;1.00;;;;;;5034454;28;20227;-72
2022/05/31 02:19:48;;;;;;;0.60;0.60;;;7.60;1.00;;;;;;5033806;28;20211;-73
2022/05/31 02:22:17;;;;;;;0.57;0.57;;;7.50;1.00;;;;;;5033173;28;20191;-73
2022/05/31 02:24:43;;;;;;;0.57;0.57;;;7.50;1.00;;;;;;5034461;28;20306;-73
2022/05/31 02:27:09;;;;;;;0.50;0.50;;;7.50;1.00;;;;;;5034231;28;20234;-73
2022/05/31 02:29:38;;;;;;;0.60;0.60;;;7.50;1.00;;;;;;5033797;28;20184;-73
2022/05/31 02:32:07;;;;;;;0.57;0.57;;;7.40;1.00;;;;;;5033998;28;20196;-74
2022/05/31 02:34:37;;;;;;;0.60;0.60;;;7.30;1.00;;;;;;5033804;28;20215;-73
2022/05/31 02:37:03;;;;;;;0.50;0.50;;;7.20;1.00;;;;;;5033947;28;20657;-72
2022/05/31 02:39:29;;;;;;;0.60;0.60;;;7.20;1.00;;;;;;5033365;28;20652;-73
2022/05/31 02:41:56;;;;;;;0.60;0.60;;;7.20;1.00;;;;;;5033959;28;20192;-73
2022/05/31 02:44:23;;;;;;;0.60;0.60;;;7.20;1.00;;;;;;5033943;28;20191;-73
2022/05/31 02:46:48;;;;;;;0.67;0.67;;;7.10;1.00;;;;;;5033931;28;20199;-73
2022/05/31 02:49:14;;;;;;;0.50;0.50;;;7.10;1.00;;;;;;5033203;28;20614;-73
2022/05/31 02:51:42;;;;;;;0.60;0.60;;;7.10;1.00;;;;;;5033665;28;20195;-73
2022/05/31 02:54:09;;;;;;;0.60;0.60;;;7.00;1.00;;;;;;5033653;28;20255;-74
2022/05/31 02:56:35;;;;;;;0.60;0.60;;;7.00;1.00;;;;;;5033884;28;20261;-74
2022/05/31 02:59:00;;;;;;;0.53;0.53;;;7.00;1.00;;;;;;5033080;28;20255;-73
2022/05/31 03:01:31;;;;;;;0.70;0.70;;;7.00;1.00;;;;;;5033593;28;20199;-74
2022/05/31 03:03:58;;;;;;;0.67;0.67;;;7.00;1.00;;;;;;5033530;28;20175;-72
2022/05/31 03:06:24;;;;;;;0.60;0.60;;;7.00;1.00;;;;;;5050030;28;20187;-75
2022/05/31 03:08:50;;;;;;;0.67;0.67;;;6.90;1.00;;;;;;5051525;28;20203;-72
2022/05/31 03:11:40;;;;;;;0.60;0.60;;;6.90;1.00;;;;;;5050822;28;20271;-73
2022/05/31 03:14:25;;;;;;;0.80;0.80;;;7.00;1.00;;;;;;5044364;28;20191;-74
2022/05/31 03:17:09;;;;;;;0.50;0.50;;;6.90;1.00;;;;;;5034904;28;20236;-74
2022/05/31 03:19:40;;;;;;;0.53;0.53;;;6.80;1.00;;;;;;5032888;28;20399;-74
2022/05/31 03:22:11;;;;;;;0.60;0.60;;;6.80;1.00;;;;;;5033382;28;20196;-74
2022/05/31 03:24:48;;;;;;;0.60;0.60;;;6.80;1.00;;;;;;5033155;28;20186;-74
2022/05/31 03:27:14;;;;;;;0.60;0.60;;;6.80;1.00;;;;;;5033366;28;20179;-74
2022/05/31 03:29:45;;;;;;;0.70;0.70;;;6.80;1.00;;;;;;5032752;28;20203;-72
2022/05/31 03:32:11;;;;;;;0.60;0.60;;;6.80;1.00;;;;;;5032896;28;20677;-74
2022/05/31 03:34:37;;;;;;;0.60;0.60;;;6.80;1.00;;;;;;5032819;28;20175;-74
2022/05/31 03:37:04;;;;;;;0.60;0.60;;;6.80;1.00;;;;;;5032845;28;20168;-74
2022/05/31 03:39:29;;;;;;;0.60;0.60;;;6.80;1.00;;;;;;5032199;28;20211;-73
2022/05/31 03:41:55;;;;;;;0.70;0.70;;;6.80;1.00;;;;;;5032903;28;20680;-74
2022/05/31 03:44:20;;;;;;;0.57;0.57;;;6.80;1.00;;;;;;5032684;28;20230;-73
2022/05/31 03:46:47;;;;;;;0.60;0.60;;;6.80;1.00;;;;;;5032920;28;20230;-74
2022/05/31 03:49:14;;;;;;;0.60;0.60;;;6.90;1.00;;;;;;5032289;28;20259;-74
2022/05/31 03:51:39;;;;;;;0.53;0.53;;;6.90;1.00;;;;;;5032153;28;20308;-74
2022/05/31 03:54:05;;;;;;;0.50;0.50;;;6.90;1.00;;;;;;5032477;28;20772;-73
2022/05/31 03:56:30;;;;;;;0.60;0.60;;;6.90;1.00;;;;;;5032432;28;20176;-74
2022/05/31 03:58:56;;;;;;;0.60;0.60;;;6.90;1.00;;;;;;5031955;28;20256;-74
2022/05/31 04:01:21;;;;;;;0.60;0.60;;;7.00;1.00;;;;;;5032523;28;20261;-74
2022/05/31 04:03:47;;;;;;;0.60;0.60;;;7.00;1.00;;;;;;5032436;28;20176;-74
2022/05/31 04:06:13;;;;;;;0.60;0.60;;;7.10;1.00;;;;;;5032253;28;20255;-73
2022/05/31 04:08:38;;;;;;;0.67;0.67;;;7.10;1.00;;;;;;5032208;28;20195;-74
2022/05/31 04:11:04;;;;;;;0.60;0.60;;;7.00;1.00;;;;;;5031836;28;20188;-74
2022/05/31 04:13:30;;;;;;;0.60;0.60;;;7.00;1.00;;;;;;5032302;28;20211;-73
2022/05/31 04:16:08;;;;;;;0.70;0.70;;;7.10;1.00;;;;;;5032256;28;20198;-74
2022/05/31 04:18:34;;;;;;;0.60;0.60;;;7.20;1.00;;;;;;5032351;28;20172;-74
2022/05/31 04:21:02;;;;;;;0.70;0.70;;;7.30;1.00;;;;;;5031554;28;20219;-73
2022/05/31 04:26:13;;;;;;;0.60;0.60;;;7.30;1.00;;;;;;5032380;28;20179;-74
2022/05/31 04:28:38;;;;;;;0.60;0.60;;;7.30;1.00;;;;;;5031991;28;20180;-74
2022/05/31 04:31:04;;;;;;;0.50;0.50;;;7.30;1.00;;;;;;5031664;28;20199;-74
2022/05/31 04:33:30;;;;;;;0.60;0.60;;;7.30;1.00;;;;;;5031971;28;20562;-74
2022/05/31 04:36:13;;;;;;;0.63;0.63;;;7.30;1.00;;;;;;5032296;28;20206;-74
2022/05/31 04:38:39;;;;;;;0.60;0.60;;;7.30;1.00;;;;;;5031930;28;20171;-74
2022/05/31 04:41:05;;;;;;;0.60;0.60;;;7.50;1.00;;;;;;5031135;28;20564;-74
2022/05/31 04:43:31;;;;;;;0.57;0.57;;;7.70;1.00;;;;;;5017802;28;20196;-74
2022/05/31 04:45:57;;;;;;;0.67;0.67;;;7.80;1.00;;;;;;5026026;28;20195;-74
2022/05/31 04:48:23;;;;;;;0.50;0.50;;;7.90;1.00;;;;;;5020194;28;20646;-74
2022/05/31 04:50:49;;;;;;;0.60;0.60;;;8.00;1.00;;;;;;5030196;28;20275;-74
2022/05/31 04:53:14;;;;;;;0.63;0.63;;;8.10;1.00;;;;;;5031766;28;20180;-74
2022/05/31 04:55:40;;;;;;;0.60;0.60;;;8.10;1.00;;;;;;5031684;28;20245;-73
2022/05/31 04:58:06;;;;;;;0.63;0.63;;;8.00;1.00;;;;;;5031784;28;20649;-74
2022/05/31 05:00:31;;;;;;;0.60;0.60;;;8.00;1.00;;;;;;5030933;28;20673;-74
2022/05/31 05:02:57;;;;;;;0.60;0.60;;;7.80;1.00;;;;;;5029791;28;20202;-74
2022/05/31 05:05:22;;;;;;;0.50;0.50;;;7.90;1.00;;;;;;5012008;28;20242;-74
2022/05/31 05:07:48;;;;;;;0.57;0.57;;;8.20;1.00;;;;;;5012250;28;20667;-74
2022/05/31 05:10:14;;;;;;;0.50;0.50;;;8.50;1.00;;;;;;5011520;28;20203;-73
2022/05/31 05:12:39;;;;;;;0.70;0.70;;;8.80;1.00;;;;;;5011869;28;20206;-74
2022/05/31 05:15:05;;;;;;;0.70;0.70;;;9.00;1.00;;;;;;5011934;28;20184;-74
2022/05/31 05:17:32;;;;;;;0.60;0.60;;;9.20;99.90;;;;;;5012044;28;20172;-74
2022/05/31 05:19:57;;;;;;;0.60;0.60;;;9.40;99.90;;;;;;5011475;28;20216;-74
2022/05/31 05:22:23;;;;;;;0.60;0.60;;;9.70;99.90;;;;;;5011981;28;20203;-75
2022/05/31 05:24:49;;;;;;;0.50;0.50;;;9.90;1.00;;;;;;5012172;28;20201;-75
2022/05/31 05:27:14;;;;;;;0.70;0.70;;;10.10;57.80;;;;;;5011905;28;20314;-74
2022/05/31 05:32:24;;;;;;;0.50;0.50;;;10.10;99.90;;;;;;5011997;28;20196;-74
2022/05/31 05:34:54;;;;;;;0.60;0.60;;;9.90;99.90;;;;;;5011975;28;20176;-74
2022/05/31 05:37:21;;;;;;;0.50;0.50;;;9.90;1.00;;;;;;5011602;28;20175;-74
2022/05/31 05:39:47;;;;;;;0.47;0.47;;;10.20;1.00;;;;;;5011163;28;20670;-76
2022/05/31 05:42:14;;;;;;;0.60;0.60;;;10.40;99.90;;;;;;5011341;28;20644;-76
2022/05/31 05:44:40;;;;;;;0.57;0.57;;;10.60;1.00;;;;;;5011806;28;20179;-75
2022/05/31 05:47:07;;;;;;;0.63;0.63;;;10.80;1.00;;;;;;5009362;28;20259;-75
2022/05/31 05:49:32;;;;;;;0.60;0.60;;;11.20;99.90;;;;;;5009235;28;20662;-75
2022/05/31 05:52:00;;;;;;;0.50;0.50;;;11.20;1.00;;;;;;5011051;28;20216;-75
2022/05/31 05:54:26;;;;;;;0.40;0.40;;;11.20;1.00;;;;;;5011005;28;20196;-76
2022/05/31 05:56:52;;;;;;;0.50;0.50;;;11.20;1.00;;;;;;5011122;28;20165;-76
2022/05/31 05:59:18;;;;;;;0.47;0.47;;;11.20;99.90;;;;;;5014317;28;20626;-75
2022/05/31 06:02:08;;;;;;;0.50;0.50;;;11.30;21.40;;;;;;5014854;28;20597;-76
2022/05/31 06:04:39;;;;;;;0.50;0.50;;;11.30;99.90;;;;;;5014428;28;20706;-76
2022/05/31 06:07:16;;;;;;;0.50;0.50;;;11.30;1.00;;;;;;5015706;28;20196;-76
2022/05/31 06:09:47;;;;;;;0.40;0.40;;;11.30;1.00;;;;;;5112753;22;20223;-79
2022/05/31 06:12:21;;;;;;;0.50;0.50;;;11.30;1.00;;;;;;5036172;28;20273;-78
2022/05/31 06:14:52;;;;;;;0.40;0.40;;;11.20;99.90;;;;;;5028118;28;20173;-79
2022/05/31 06:17:24;;;;;;;0.50;0.50;;;11.20;97.40;;;;;;5040678;28;20180;-78
2022/05/31 06:19:49;;;;;;;0.60;0.60;;;11.40;1.00;;;;;;5042386;28;20216;-76
2022/05/31 06:22:18;;;;;;;0.50;0.50;;;11.50;1.00;;;;;;5033990;28;20210;-79
2022/05/31 06:24:44;;;;;;;0.50;0.50;;;11.70;1.00;;;;;;5036031;28;20690;-77
2022/05/31 06:27:10;;;;;;;0.43;0.43;;;11.90;1.00;;;;;;5033756;28;20184;-77
2022/05/31 06:29:36;;;;;;;0.50;0.50;;;12.10;1.00;;;;;;5032961;28;20180;-77
2022/05/31 06:32:01;;;;;;;0.40;0.40;;;12.10;1.00;;;;;;5028715;28;20196;-78
2022/05/31 06:34:27;;;;;;;0.40;0.40;;;12.20;1.00;;;;;;5014833;28;20700;-77
2022/05/31 06:37:08;;;;;;;0.50;0.50;;;12.20;99.90;;;;;;5020017;28;20203;-76
2022/05/31 06:39:38;;;;;;;0.40;0.40;;;12.40;93.20;;;;;;5032783;28;20211;-77
2022/05/31 06:42:05;;;;;;;0.50;0.50;;;12.70;1.00;;;;;;5026446;28;20259;-77
2022/05/31 06:44:32;;;;;;;0.40;0.40;;;12.90;99.90;;;;;;5025072;28;21099;-77
2022/05/31 06:46:58;;;;;;;0.40;0.40;;;13.10;99.90;;;;;;5034693;28;20161;-78
2022/05/31 06:49:23;;;;;;;0.40;0.40;;;13.30;99.90;;;;;;5033417;28;20278;-78
2022/05/31 06:57:17;;;;;;;0.40;0.40;;;13.80;50.20;;;;;;5034282;28;20222;-78
2022/05/31 06:59:42;;;;;;;0.40;0.40;;;13.80;1.00;;;;;;5034693;28;20622;-78
2022/05/31 07:02:08;;;;;;;0.33;0.33;;;13.90;1.00;;;;;;5033423;28;20562;-78
2022/05/31 07:04:35;;;;;;;0.40;0.40;;;13.90;99.90;;;;;;5030806;28;20184;-78
2022/05/31 07:07:01;;;;;;;0.50;0.50;;;14.00;99.90;;;;;;5031443;28;20238;-77
2022/05/31 07:09:27;;;;;;;0.50;0.50;;;14.30;99.90;;;;;;5031821;28;20272;-79
2022/05/31 07:11:55;;;;;;;0.40;0.40;;;14.40;99.90;;;;;;5031648;28;20335;-78
2022/05/31 07:14:21;;;;;;;0.30;0.30;;;14.70;1.00;;;;;;5031460;28;20556;-77
2022/05/31 07:16:46;;;;;;;0.40;0.40;;;15.00;1.00;;;;;;5031672;28;20176;-79
2022/05/31 07:19:12;;;;;;;0.40;0.40;;;15.10;1.00;;;;;;5036323;28;20207;-78
2022/05/31 07:21:37;;;;;;;0.40;0.40;;;15.30;1.00;;;;;;5040107;28;20191;-78
2022/05/31 07:24:03;;;;;;;0.50;0.50;;;15.60;1.00;;;;;;5035994;28;20180;-78
2022/05/31 07:26:29;;;;;;;0.30;0.30;;;15.90;1.00;;;;;;5034214;28;20286;-83
2022/05/31 07:28:56;;;;;;;0.40;0.40;;;16.10;1.00;;;;;;5034661;28;20206;-79
2022/05/31 07:31:21;;;;;;;0.40;0.40;;;16.20;1.00;;;;;;5035708;28;20684;-80
2022/05/31 07:33:47;;;;;;;0.30;0.30;;;16.30;1.00;;;;;;5034756;28;20180;-78
2022/05/31 07:36:13;;;;;;;0.30;0.30;;;16.50;1.00;;;;;;5035357;28;20258;-78
2022/05/31 07:38:39;;;;;;;0.33;0.33;;;16.60;1.00;;;;;;5035817;28;20701;-78
2022/05/31 07:41:05;;;;;;;0.30;0.30;;;16.90;1.00;;;;;;5034648;28;20607;-80
2022/05/31 07:43:31;;;;;;;0.40;0.40;;;17.20;1.00;;;;;;5036400;28;20176;-79
2022/05/31 07:46:05;;;;;;;0.30;0.30;;;17.40;1.00;;;;;;5035330;28;20183;-79
2022/05/31 07:48:32;;;;;;;0.40;0.40;;;17.60;1.00;;;;;;5035061;28;20322;-78
2022/05/31 07:50:58;;;;;;;0.30;0.30;;;17.50;1.00;;;;;;5033100;28;20212;-77
2022/05/31 07:53:24;;;;;;;0.30;0.30;;;17.70;1.00;;;;;;5030950;28;20551;-78
2022/05/31 07:55:58;;;;;;;0.30;0.30;;;18.20;1.00;;;;;;5030112;28;20171;-77
2022/05/31 07:58:33;;;;;;;0.40;0.40;;;19.00;1.00;;;;;;5033825;28;20315;-78
2022/05/31 08:01:05;;;;;;;0.40;0.40;;;19.50;1.00;;;;;;5033417;28;20234;-79
2022/05/31 08:03:31;;;;;;;0.40;0.40;;;20.20;1.00;;;;;;5032336;28;20218;-78
2022/05/31 08:05:57;;;;;;;0.27;0.27;;;20.50;1.00;;;;;;5033274;28;20182;-78
2022/05/31 08:08:23;;;;;;;0.30;0.30;;;21.00;1.00;;;;;;5033942;28;20205;-79
2022/05/31 08:10:48;;;;;;;0.30;0.30;;;21.70;1.00;;;;;;5033811;28;20272;-78
2022/05/31 08:13:14;;;;;;;0.30;0.30;;;22.00;1.00;;;;;;5033091;28;20195;-77
2022/05/31 08:15:40;;;;;;;0.23;0.23;;;22.40;1.00;;;;;;5030330;28;20175;-78
2022/05/31 08:18:06;;;;;;;0.20;0.20;;;22.70;1.00;;;;;;5032942;28;20214;-79
2022/05/31 08:20:31;;;;;;;0.37;0.37;;;23.20;1.00;;;;;;5033141;28;20219;-79
2022/05/31 08:22:57;;;;;;;0.20;0.20;;;23.20;1.00;;;;;;5034087;28;20649;-77
2022/05/31 08:25:23;;;;;;;0.40;0.40;;;23.20;1.00;;;;;;5030895;28;20180;-78
2022/05/31 08:27:48;;;;;;;0.30;0.30;;;23.30;1.00;;;;;;5031921;28;20180;-79
2022/05/31 08:30:14;;;;;;;0.40;0.40;;;23.40;1.00;;;;;;5032525;28;20196;-81
2022/05/31 08:32:40;;;;;;;0.30;0.30;;;23.40;1.00;;;;;;5033144;28;20194;-79
2022/05/31 08:35:07;;;;;;;0.30;0.30;;;23.30;1.00;;;;;;5031795;28;20261;-76
2022/05/31 08:37:32;;;;;;;0.40;0.40;;;22.80;1.00;;;;;;5031904;28;20180;-77
2022/05/31 08:39:58;;;;;;;0.40;0.40;;;22.50;1.00;;;;;;5032556;28;20222;-78
2022/05/31 08:42:45;;;;;;;0.40;0.40;;;22.60;1.00;;;;;;5032864;28;20287;-78
2022/05/31 08:45:37;;;;;;;0.30;0.30;;;23.00;1.00;;;;;;5032513;28;20714;-79
2022/05/31 08:48:22;;;;;;;0.30;0.30;;;23.20;1.00;;;;;;5032916;28;20271;-79
2022/05/31 08:57:45;;;;;;;0.30;0.30;;;23.40;1.00;;;;;;5035491;28;20233;-78
2022/05/31 09:00:33;;;;;;;0.20;0.20;;;23.20;1.00;;;;;;5036759;28;20309;-78
2022/05/31 09:03:13;;;;;;;0.30;0.30;;;23.10;1.00;;;;;;5036399;28;20720;-77
2022/05/31 09:05:55;;;;;;;0.30;0.30;;;22.90;1.00;;;;;;5027482;28;20232;-77
2022/05/31 09:08:31;;;;;;;0.40;0.40;;;22.40;1.00;;;;;;5027985;28;20253;-77
2022/05/31 09:11:12;;;;;;;0.50;0.50;;;22.40;1.00;;;;;;5027000;28;20194;-77
2022/05/31 09:14:05;;;;;;;0.30;0.30;;;22.90;1.00;;;;;;5030681;28;20192;-77
2022/05/31 09:16:40;;;;;;;0.30;0.30;;;23.00;1.00;;;;;;5030994;28;20179;-77
2022/05/31 09:19:09;;;;;;;0.30;0.30;;;23.40;1.00;;;;;;5031421;28;20175;-77
2022/05/31 09:21:42;;;;;;;0.30;0.30;;;24.00;1.00;;;;;;5033659;28;20237;-79
2022/05/31 09:24:20;;;;;;;0.33;0.33;;;24.50;1.00;;;;;;5037343;28;20186;-78
2022/05/31 09:27:09;;;;;;;0.30;0.30;;;24.80;1.00;;;;;;5034160;28;20268;-77
2022/05/31 09:29:44;;;;;;;0.30;0.30;;;24.90;1.00;;;;;;5030553;28;20828;-77
2022/05/31 09:32:34;;;;;;;0.30;0.30;;;25.20;1.00;;;;;;5034690;28;20230;-78
2022/05/31 09:35:27;;;;;;;0.30;0.30;;;25.00;1.00;;;;;;5035364;28;20179;-78
2022/05/31 09:38:24;;;;;;;0.50;0.50;;;25.20;1.00;;;;;;5033996;28;20219;-78
2022/05/31 09:40:53;;;;;;;0.30;0.30;;;25.40;1.00;;;;;;5033362;28;20832;-77
2022/05/31 09:43:32;;;;;;;0.30;0.30;;;25.80;1.00;;;;;;5035334;28;20168;-78
2022/05/31 09:46:11;;;;;;;0.20;0.20;;;25.20;1.00;;;;;;5036418;28;20175;-78
2022/05/31 09:49:16;;;;;;;0.30;0.30;;;25.10;1.00;;;;;;5035688;28;20667;-76
2022/05/31 09:51:42;;;;;;;0.40;0.40;;;24.80;1.00;;;;;;5025784;28;20259;-77
2022/05/31 09:57:06;;;;;;;0.30;0.30;;;24.20;1.00;;;;;;5035293;28;20203;-77
2022/05/31 09:59:34;;;;;;;0.37;0.37;;;24.60;1.00;;;;;;5034594;28;20302;-78
2022/05/31 10:02:19;;;;;;;0.40;0.40;;;25.30;1.00;;;;;;5034713;28;20196;-78
2022/05/31 10:04:47;;;;;;;0.33;0.33;;;25.90;1.00;;;;;;5038313;28;20184;-77
2022/05/31 10:07:29;;;;;;;0.37;0.37;;;26.30;1.00;;;;;;5037535;28;20637;-78
2022/05/31 10:10:11;;;;;;;0.20;0.20;;;26.50;1.00;;;;;;5035432;28;20187;-78
2022/05/31 10:12:47;;;;;;;0.40;0.40;;;26.60;1.00;;;;;;5034990;28;20203;-78
2022/05/31 10:15:41;;;;;;;0.30;0.30;;;26.80;1.00;;;;;;5037514;28;20187;-79
2022/05/31 10:18:09;;;;;;;0.30;0.30;;;26.40;1.00;;;;;;5037835;28;20271;-79
2022/05/31 10:20:37;;;;;;;0.30;0.30;;;26.20;1.00;;;;;;5036492;28;20214;-79
2022/05/31 10:23:13;;;;;;;0.40;0.40;;;26.30;1.00;;;;;;5038123;28;20200;-78
2022/05/31 10:25:51;;;;;;;0.30;0.30;;;25.70;1.00;;;;;;5039565;28;20644;-78
2022/05/31 10:28:37;;;;;;;0.40;0.40;;;25.90;1.00;;;;;;5036477;28;20186;-78
2022/05/31 10:31:29;;;;;;;0.20;0.20;;;25.70;1.00;;;;;;5032906;28;20198;-79
2022/05/31 10:34:00;;;;;;;0.30;0.30;;;25.80;1.00;;;;;;5031690;28;20195;-78
2022/05/31 10:36:29;;;;;;;0.30;0.30;;;25.50;1.00;;;;;;5034934;28;20184;-78
2022/05/31 10:38:55;;;;;;;0.40;0.40;;;26.00;1.00;;;;;;5034614;28;20632;-78
2022/05/31 10:41:29;;;;;;;0.30;0.30;;;26.50;1.00;;;;;;5034399;28;20673;-78
2022/05/31 10:44:29;;;;;;;0.30;0.30;;;26.60;1.00;;;;;;5036217;28;20220;-80
2022/05/31 10:47:04;;;;;;;0.30;0.30;;;26.80;1.00;;;;;;5035279;28;20188;-80
2022/05/31 10:49:31;;;;;;;0.27;0.27;;;26.90;1.00;;;;;;5037119;28;20171;-78
2022/05/31 10:52:03;;;;;;;0.30;0.30;;;26.50;1.00;;;;;;5036074;28;20195;-78
2022/05/31 10:55:00;;;;;;;0.30;0.30;;;25.90;1.00;;;;;;5035974;28;20186;-79
2022/05/31 10:58:03;;;;;;;0.30;0.30;;;25.70;1.00;;;;;;5032055;28;20539;-78
2022/05/31 11:00:37;;;;;;;0.30;0.30;;;25.90;1.00;;;;;;5014868;28;20691;-78
2022/05/31 11:03:12;;;;;;;0.30;0.30;;;26.20;1.00;;;;;;5015755;28;20227;-78
2022/05/31 11:06:02;;;;;;;0.27;0.27;;;26.40;1.00;;;;;;5015950;28;20225;-78
2022/05/31 11:12:19;;;;;;;0.33;0.33;;;25.80;1.00;;;;;;5034297;28;20234;-78
2022/05/31 11:14:51;;;;;;;0.33;0.33;;;25.90;1.00;;;;;;5031632;28;20198;-77
2022/05/31 11:17:23;;;;;;;0.40;0.40;;;26.80;1.00;;;;;;5036587;28;20187;-79
2022/05/31 11:19:55;;;;;;;0.30;0.30;;;27.10;1.00;;;;;;5034308;28;20226;-78
2022/05/31 11:22:59;;;;;;;0.40;0.40;;;26.70;1.00;;;;;;5035884;28;20298;-78
2022/05/31 11:25:33;;;;;;;0.50;0.50;;;26.80;1.00;;;;;;5031655;28;20167;-79
2022/05/31 11:28:49;;;;;;;0.40;0.40;;;27.30;1.00;;;;;;5033186;28;20273;-79
2022/05/31 11:31:36;;;;;;;0.50;0.50;;;26.90;1.00;;;;;;4997468;28;20265;-78
2022/05/31 11:34:21;;;;;;;0.37;0.37;;;26.70;1.00;;;;;;5017502;28;20185;-78
2022/05/31 11:37:09;;;;;;;0.40;0.40;;;27.40;1.00;;;;;;5019288;28;20226;-78
2022/05/31 11:40:16;;;;;;;0.40;0.40;;;27.50;1.00;;;;;;5014274;28;20204;-78
2022/05/31 11:43:00;;;;;;;0.40;0.40;;;27.00;1.00;;;;;;4986941;28;20287;-76
2022/05/31 11:45:50;;;;;;;0.30;0.30;;;26.80;1.00;;;;;;5028147;28;20202;-76
2022/05/31 11:48:36;;;;;;;0.30;0.30;;;26.40;1.00;;;;;;5026941;28;20176;-76
2022/05/31 11:51:05;;;;;;;0.40;0.40;;;26.80;1.00;;;;;;5024922;28;20265;-75
2022/05/31 11:53:49;;;;;;;0.40;0.40;;;27.20;1.00;;;;;;5032478;28;20493;-76
2022/05/31 11:56:24;;;;;;;0.30;0.30;;;27.50;1.00;;;;;;5031921;28;20688;-79
2022/05/31 11:59:18;;;;;;;0.30;0.30;;;27.80;1.00;;;;;;5034332;28;20600;-80
2022/05/31 12:02:00;;;;;;;0.40;0.40;;;28.10;1.00;;;;;;5031710;28;20306;-78
2022/05/31 12:04:37;;;;;;;0.40;0.40;;;28.30;1.00;;;;;;5034016;28;20187;-78
2022/05/31 12:07:18;;;;;;;0.47;0.47;;;28.10;1.00;;;;;;5034437;28;20263;-79
2022/05/31 12:09:58;;;;;;;0.30;0.30;;;27.90;1.00;;;;;;5033314;28;20755;-79
2022/05/31 12:12:30;;;;;;;0.33;0.33;;;27.70;1.00;;;;;;5034844;28;20229;-80
2022/05/31 12:15:02;;;;;;;0.30;0.30;;;27.60;1.00;;;;;;5015029;28;20180;-79
2022/05/31 12:17:49;;;;;;;0.30;0.30;;;27.10;1.00;;;;;;5021534;28;20594;-79
2022/05/31 12:20:27;;;;;;;0.23;0.23;;;26.50;1.00;;;;;;5026714;28;20245;-81
2022/05/31 12:23:15;;;;;;;0.30;0.30;;;25.80;1.00;;;;;;5030998;28;20351;-82
2022/05/31 12:25:47;;;;;;;0.30;0.30;;;25.80;1.00;;;;;;5028720;28;20191;-81
2022/05/31 12:28:26;;;;;;;0.40;0.40;;;26.40;1.00;;;;;;5023710;28;20598;-79
2022/05/31 12:31:26;;;;;;;0.37;0.37;;;27.00;1.00;;;;;;5032393;28;20180;-79
2022/05/31 12:33:52;;;;;;;0.30;0.30;;;27.10;1.00;;;;;;5033115;28;20222;-80
2022/05/31 12:36:23;;;;;;;0.23;0.23;;;26.80;1.00;;;;;;5032447;28;20176;-78
2022/05/31 12:39:04;;;;;;;0.40;0.40;;;26.20;1.00;;;;;;5033614;28;20587;-81
2022/05/31 12:41:34;;;;;;;0.30;0.30;;;26.20;1.00;;;;;;5033225;28;20290;-80
2022/05/31 12:44:00;;;;;;;0.40;0.40;;;25.90;1.00;;;;;;5033451;28;20179;-81
2022/05/31 12:46:36;;;;;;;0.30;0.30;;;25.60;1.00;;;;;;5032866;28;20187;-79
2022/05/31 12:49:19;;;;;;;0.30;0.30;;;25.80;1.00;;;;;;5032932;28;20175;-81
2022/05/31 12:52:10;;;;;;;0.30;0.30;;;25.80;1.00;;;;;;5033884;28;20226;-79
2022/05/31 12:54:48;;;;;;;0.40;0.40;;;25.80;1.00;;;;;;5046778;28;20183;-79
2022/05/31 13:00:33;;;;;;;0.30;0.30;;;26.20;1.00;;;;;;5039608;28;20271;-78
2022/05/31 13:03:05;;;;;;;0.30;0.30;;;26.80;1.00;;;;;;5040311;28;20199;-78
2022/05/31 13:06:10;;;;;;;0.37;0.37;;;27.10;1.00;;;;;;5032115;28;20176;-79
2022/05/31 13:09:05;;;;;;;0.30;0.30;;;27.10;1.00;;;;;;5033457;28;20199;-79
2022/05/31 13:20:13;;;;;;;0.30;0.30;;;27.80;1.00;;;;;;5037627;28;20218;-78
2022/05/31 13:22:43;;;;;;;0.40;0.40;;;27.50;1.00;;;;;;5037743;28;20230;-77
2022/05/31 13:25:42;;;;;;;0.47;0.47;;;27.30;1.00;;;;;;5037863;28;20167;-77
2022/05/31 13:28:08;;;;;;;0.40;0.40;;;27.20;1.00;;;;;;5038054;28;20203;-79
2022/05/31 13:30:42;;;;;;;0.43;0.43;;;26.90;1.00;;;;;;5037607;28;20198;-78
2022/05/31 13:33:21;;;;;;;0.40;0.40;;;27.20;1.00;;;;;;5037900;28;20581;-78
2022/05/31 13:35:57;;;;;;;0.30;0.30;;;27.50;1.00;;;;;;5037661;28;20234;-78
2022/05/31 13:38:26;;;;;;;0.30;0.30;;;27.20;1.00;;;;;;5037940;28;20199;-78
2022/05/31 13:40:54;;;;;;;0.40;0.40;;;26.90;1.00;;;;;;5037344;28;20708;-77
2022/05/31 13:43:36;;;;;;;0.30;0.30;;;26.50;1.00;;;;;;5037699;28;20172;-77
2022/05/31 13:46:26;;;;;;;0.30;0.30;;;25.90;1.00;;;;;;5037777;28;20199;-78
2022/05/31 13:49:23;;;;;;;0.30;0.30;;;25.70;1.00;;;;;;5037435;28;20199;-78
2022/05/31 13:51:54;;;;;;;0.30;0.30;;;25.40;1.00;;;;;;5034534;28;20326;-80
2022/05/31 13:54:26;;;;;;;0.30;0.30;;;24.90;1.00;;;;;;5037670;28;20754;-80
2022/05/31 13:56:57;;;;;;;0.20;0.20;;;24.80;1.00;;;;;;5035865;28;20194;-80
2022/05/31 13:59:39;;;;;;;0.30;0.30;;;24.50;1.00;;;;;;5034160;28;20219;-80
2022/05/31 14:02:16;;;;;;;0.30;0.30;;;24.20;1.00;;;;;;5036578;28;20208;-79
2022/05/31 14:04:44;;;;;;;0.30;0.30;;;24.10;1.00;;;;;;5041731;28;20171;-79
2022/05/31 14:07:16;;;;;;;0.30;0.30;;;24.00;1.00;;;;;;5047541;28;20728;-79
2022/05/31 14:09:54;;;;;;;0.30;0.30;;;23.80;1.00;;;;;;5046653;28;20215;-80
2022/05/31 14:12:21;;;;;;;0.30;0.30;;;23.50;1.00;;;;;;5044135;28;20291;-79